sim
Sign-in with your pilot id or email,
or register
Callsign
Passwort

Schedule Details

Flight Number: RYR1003 (1)
Departure: Warsaw Modlin Airport (EPMO) at 07:40
Arrival: Thessaloniki International Airport (LGTS) at 09:55
Route: Ryanair Passenger Schedule. Enter filed route here before submitting Pirep.

Weather Information
Getting current METAR information for EPMO 211130Z 25009KT 3600 -RA BR OVC007 06/05 Q1019
Getting current METAR information for LGTS 211150Z 34014KT CAVOK 16/00 Q1023 NOSIG

Schedule Frequency

Route Map